sensor_id;sensor_type;location;lat;lon;timestamp;P1;durP1;ratioP1;P2;durP2;ratioP2
66546;SDS011;53400;50.364;14.874;2023-11-19T00:00:54;24.02;;;12.48;;
66546;SDS011;53400;50.364;14.874;2023-11-19T00:03:40;20.80;;;12.48;;
66546;SDS011;53400;50.364;14.874;2023-11-19T00:06:09;20.60;;;11.75;;
66546;SDS011;53400;50.364;14.874;2023-11-19T00:08:36;17.77;;;11.30;;
66546;SDS011;53400;50.364;14.874;2023-11-19T00:11:04;19.85;;;11.43;;
66546;SDS011;53400;50.364;14.874;2023-11-19T00:13:35;19.08;;;11.73;;
66546;SDS011;53400;50.364;14.874;2023-11-19T00:16:01;20.52;;;10.55;;
66546;SDS011;53400;50.364;14.874;2023-11-19T00:18:29;19.90;;;12.15;;
66546;SDS011;53400;50.364;14.874;2023-11-19T00:20:55;22.17;;;12.43;;
66546;SDS011;53400;50.364;14.874;2023-11-19T00:23:21;22.75;;;12.90;;
66546;SDS011;53400;50.364;14.874;2023-11-19T00:25:49;19.52;;;11.73;;
66546;SDS011;53400;50.364;14.874;2023-11-19T00:28:16;19.40;;;11.77;;
66546;SDS011;53400;50.364;14.874;2023-11-19T00:30:45;23.10;;;12.32;;
66546;SDS011;53400;50.364;14.874;2023-11-19T00:33:11;24.60;;;12.27;;
66546;SDS011;53400;50.364;14.874;2023-11-19T00:35:37;22.83;;;12.57;;
66546;SDS011;53400;50.364;14.874;2023-11-19T00:38:03;22.73;;;12.65;;
66546;SDS011;53400;50.364;14.874;2023-11-19T00:40:30;20.67;;;11.48;;
66546;SDS011;53400;50.364;14.874;2023-11-19T00:42:56;23.20;;;12.82;;
66546;SDS011;53400;50.364;14.874;2023-11-19T00:45:22;26.20;;;14.65;;
66546;SDS011;53400;50.364;14.874;2023-11-19T00:47:50;21.02;;;13.48;;
66546;SDS011;53400;50.364;14.874;2023-11-19T00:50:18;23.85;;;14.20;;
66546;SDS011;53400;50.364;14.874;2023-11-19T00:52:44;26.08;;;12.70;;
66546;SDS011;53400;50.364;14.874;2023-11-19T00:55:10;21.52;;;12.93;;
66546;SDS011;53400;50.364;14.874;2023-11-19T00:57:37;26.00;;;13.00;;
66546;SDS011;53400;50.364;14.874;2023-11-19T01:00:04;22.65;;;13.65;;
66546;SDS011;53400;50.364;14.874;2023-11-19T01:02:38;20.25;;;12.20;;
66546;SDS011;53400;50.364;14.874;2023-11-19T01:05:07;23.25;;;12.95;;
66546;SDS011;53400;50.364;14.874;2023-11-19T01:07:33;23.48;;;13.55;;
66546;SDS011;53400;50.364;14.874;2023-11-19T01:10:00;19.65;;;11.88;;
66546;SDS011;53400;50.364;14.874;2023-11-19T01:12:26;21.27;;;12.68;;
66546;SDS011;53400;50.364;14.874;2023-11-19T01:14:52;23.20;;;12.57;;
66546;SDS011;53400;50.364;14.874;2023-11-19T01:17:18;22.48;;;12.57;;
66546;SDS011;53400;50.364;14.874;2023-11-19T01:19:44;22.67;;;12.55;;
66546;SDS011;53400;50.364;14.874;2023-11-19T01:22:12;21.67;;;13.07;;
66546;SDS011;53400;50.364;14.874;2023-11-19T01:24:38;25.13;;;12.73;;
66546;SDS011;53400;50.364;14.874;2023-11-19T01:27:04;21.63;;;12.38;;
66546;SDS011;53400;50.364;14.874;2023-11-19T01:29:30;20.90;;;11.85;;
66546;SDS011;53400;50.364;14.874;2023-11-19T01:31:56;24.55;;;12.95;;
66546;SDS011;53400;50.364;14.874;2023-11-19T01:34:25;23.27;;;12.85;;
66546;SDS011;53400;50.364;14.874;2023-11-19T01:36:50;22.08;;;12.30;;
66546;SDS011;53400;50.364;14.874;2023-11-19T01:39:18;23.58;;;12.25;;
66546;SDS011;53400;50.364;14.874;2023-11-19T01:41:45;22.40;;;12.73;;
66546;SDS011;53400;50.364;14.874;2023-11-19T01:44:13;22.42;;;12.75;;
66546;SDS011;53400;50.364;14.874;2023-11-19T01:46:40;23.27;;;12.90;;
66546;SDS011;53400;50.364;14.874;2023-11-19T01:49:07;21.98;;;11.77;;
66546;SDS011;53400;50.364;14.874;2023-11-19T01:51:34;20.50;;;11.90;;
66546;SDS011;53400;50.364;14.874;2023-11-19T01:54:01;24.73;;;12.73;;
66546;SDS011;53400;50.364;14.874;2023-11-19T01:56:31;21.50;;;12.20;;
66546;SDS011;53400;50.364;14.874;2023-11-19T01:58:58;22.85;;;12.82;;
66546;SDS011;53400;50.364;14.874;2023-11-19T02:01:24;22.05;;;12.88;;
66546;SDS011;53400;50.364;14.874;2023-11-19T02:03:51;21.48;;;11.98;;
66546;SDS011;53400;50.364;14.874;2023-11-19T02:06:17;22.00;;;13.05;;
66546;SDS011;53400;50.364;14.874;2023-11-19T02:08:43;23.77;;;13.30;;
66546;SDS011;53400;50.364;14.874;2023-11-19T02:11:09;22.27;;;13.15;;
66546;SDS011;53400;50.364;14.874;2023-11-19T02:13:40;20.77;;;12.25;;
66546;SDS011;53400;50.364;14.874;2023-11-19T02:16:14;24.30;;;12.63;;
66546;SDS011;53400;50.364;14.874;2023-11-19T02:18:41;20.27;;;11.98;;
66546;SDS011;53400;50.364;14.874;2023-11-19T02:21:10;22.30;;;13.32;;
66546;SDS011;53400;50.364;14.874;2023-11-19T02:23:37;21.25;;;12.93;;
66546;SDS011;53400;50.364;14.874;2023-11-19T02:26:06;23.90;;;12.90;;
66546;SDS011;53400;50.364;14.874;2023-11-19T02:28:41;23.02;;;12.93;;
66546;SDS011;53400;50.364;14.874;2023-11-19T02:31:08;24.08;;;15.07;;
66546;SDS011;53400;50.364;14.874;2023-11-19T02:33:35;25.58;;;14.35;;
66546;SDS011;53400;50.364;14.874;2023-11-19T02:36:04;24.63;;;13.93;;
66546;SDS011;53400;50.364;14.874;2023-11-19T02:38:32;23.85;;;14.25;;
66546;SDS011;53400;50.364;14.874;2023-11-19T02:40:58;22.52;;;13.52;;
66546;SDS011;53400;50.364;14.874;2023-11-19T02:43:24;23.40;;;13.02;;
66546;SDS011;53400;50.364;14.874;2023-11-19T02:45:52;23.52;;;12.88;;
66546;SDS011;53400;50.364;14.874;2023-11-19T02:48:22;24.00;;;12.48;;
66546;SDS011;53400;50.364;14.874;2023-11-19T02:50:48;22.58;;;12.95;;
66546;SDS011;53400;50.364;14.874;2023-11-19T02:53:14;23.65;;;13.05;;
66546;SDS011;53400;50.364;14.874;2023-11-19T02:55:42;22.42;;;12.68;;
66546;SDS011;53400;50.364;14.874;2023-11-19T02:58:31;21.30;;;12.52;;
66546;SDS011;53400;50.364;14.874;2023-11-19T03:00:59;22.90;;;13.25;;
66546;SDS011;53400;50.364;14.874;2023-11-19T03:03:35;22.17;;;12.05;;
66546;SDS011;53400;50.364;14.874;2023-11-19T03:06:06;17.23;;;10.45;;
66546;SDS011;53400;50.364;14.874;2023-11-19T03:08:32;19.85;;;10.10;;
66546;SDS011;53400;50.364;14.874;2023-11-19T03:11:00;20.42;;;10.38;;
66546;SDS011;53400;50.364;14.874;2023-11-19T03:13:26;17.58;;;10.00;;
66546;SDS011;53400;50.364;14.874;2023-11-19T03:15:52;18.33;;;10.23;;
66546;SDS011;53400;50.364;14.874;2023-11-19T03:18:23;17.35;;;9.35;;
66546;SDS011;53400;50.364;14.874;2023-11-19T03:20:49;19.42;;;10.10;;
66546;SDS011;53400;50.364;14.874;2023-11-19T03:23:15;19.83;;;10.15;;
66546;SDS011;53400;50.364;14.874;2023-11-19T03:25:44;19.40;;;10.50;;
66546;SDS011;53400;50.364;14.874;2023-11-19T03:28:11;18.63;;;10.10;;
66546;SDS011;53400;50.364;14.874;2023-11-19T03:30:37;21.58;;;10.88;;
66546;SDS011;53400;50.364;14.874;2023-11-19T03:33:04;18.48;;;10.73;;
66546;SDS011;53400;50.364;14.874;2023-11-19T03:35:31;19.63;;;9.93;;
66546;SDS011;53400;50.364;14.874;2023-11-19T03:37:58;22.63;;;11.45;;
66546;SDS011;53400;50.364;14.874;2023-11-19T03:40:24;19.02;;;10.15;;
66546;SDS011;53400;50.364;14.874;2023-11-19T03:42:50;18.25;;;9.68;;
66546;SDS011;53400;50.364;14.874;2023-11-19T03:45:16;20.38;;;10.95;;
66546;SDS011;53400;50.364;14.874;2023-11-19T03:47:47;21.52;;;11.00;;
66546;SDS011;53400;50.364;14.874;2023-11-19T03:50:16;21.67;;;11.15;;
66546;SDS011;53400;50.364;14.874;2023-11-19T03:52:45;23.23;;;12.25;;
66546;SDS011;53400;50.364;14.874;2023-11-19T03:55:11;23.90;;;13.15;;
66546;SDS011;53400;50.364;14.874;2023-11-19T03:57:38;23.48;;;12.32;;
66546;SDS011;53400;50.364;14.874;2023-11-19T04:00:05;23.85;;;12.52;;
66546;SDS011;53400;50.364;14.874;2023-11-19T04:02:40;20.60;;;11.80;;
66546;SDS011;53400;50.364;14.874;2023-11-19T04:05:06;20.65;;;11.35;;
66546;SDS011;53400;50.364;14.874;2023-11-19T04:07:33;27.13;;;12.63;;
66546;SDS011;53400;50.364;14.874;2023-11-19T04:10:01;23.55;;;11.50;;
66546;SDS011;53400;50.364;14.874;2023-11-19T04:12:27;25.42;;;12.77;;
66546;SDS011;53400;50.364;14.874;2023-11-19T04:14:53;22.10;;;11.77;;
66546;SDS011;53400;50.364;14.874;2023-11-19T04:17:22;22.50;;;11.95;;
66546;SDS011;53400;50.364;14.874;2023-11-19T04:19:48;22.88;;;12.18;;
66546;SDS011;53400;50.364;14.874;2023-11-19T04:22:15;23.17;;;10.27;;
66546;SDS011;53400;50.364;14.874;2023-11-19T04:24:41;22.70;;;12.20;;
66546;SDS011;53400;50.364;14.874;2023-11-19T04:27:11;22.00;;;11.77;;
66546;SDS011;53400;50.364;14.874;2023-11-19T04:29:36;21.63;;;12.32;;
66546;SDS011;53400;50.364;14.874;2023-11-19T04:32:03;23.30;;;12.52;;
66546;SDS011;53400;50.364;14.874;2023-11-19T04:34:30;22.60;;;11.35;;
66546;SDS011;53400;50.364;14.874;2023-11-19T04:36:57;23.92;;;11.63;;
66546;SDS011;53400;50.364;14.874;2023-11-19T04:39:23;23.70;;;12.50;;
66546;SDS011;53400;50.364;14.874;2023-11-19T04:41:49;19.60;;;11.50;;
66546;SDS011;53400;50.364;14.874;2023-11-19T04:44:19;20.38;;;10.05;;
66546;SDS011;53400;50.364;14.874;2023-11-19T04:46:46;19.50;;;10.52;;
66546;SDS011;53400;50.364;14.874;2023-11-19T04:49:13;17.92;;;9.80;;
66546;SDS011;53400;50.364;14.874;2023-11-19T04:51:47;19.17;;;10.77;;
66546;SDS011;53400;50.364;14.874;2023-11-19T04:54:23;21.00;;;10.05;;
66546;SDS011;53400;50.364;14.874;2023-11-19T04:56:50;19.77;;;10.23;;
66546;SDS011;53400;50.364;14.874;2023-11-19T04:59:16;21.10;;;10.18;;
66546;SDS011;53400;50.364;14.874;2023-11-19T05:01:48;20.20;;;10.30;;
66546;SDS011;53400;50.364;14.874;2023-11-19T05:04:16;19.55;;;9.82;;
66546;SDS011;53400;50.364;14.874;2023-11-19T05:06:44;19.40;;;9.93;;
66546;SDS011;53400;50.364;14.874;2023-11-19T05:09:10;17.05;;;9.27;;
66546;SDS011;53400;50.364;14.874;2023-11-19T05:11:39;19.38;;;9.98;;
66546;SDS011;53400;50.364;14.874;2023-11-19T05:14:05;20.55;;;10.25;;
66546;SDS011;53400;50.364;14.874;2023-11-19T05:16:34;20.25;;;10.30;;
66546;SDS011;53400;50.364;14.874;2023-11-19T05:19:02;19.30;;;9.93;;
66546;SDS011;53400;50.364;14.874;2023-11-19T05:21:29;18.35;;;9.05;;
66546;SDS011;53400;50.364;14.874;2023-11-19T05:23:54;17.33;;;9.07;;
66546;SDS011;53400;50.364;14.874;2023-11-19T05:26:28;17.83;;;9.88;;
66546;SDS011;53400;50.364;14.874;2023-11-19T05:28:56;20.80;;;10.48;;
66546;SDS011;53400;50.364;14.874;2023-11-19T05:31:22;19.77;;;9.45;;
66546;SDS011;53400;50.364;14.874;2023-11-19T05:33:48;19.35;;;9.85;;
66546;SDS011;53400;50.364;14.874;2023-11-19T05:36:16;19.75;;;9.40;;
66546;SDS011;53400;50.364;14.874;2023-11-19T05:38:42;17.23;;;9.40;;
66546;SDS011;53400;50.364;14.874;2023-11-19T05:41:10;20.23;;;9.82;;
66546;SDS011;53400;50.364;14.874;2023-11-19T05:43:36;18.83;;;9.30;;
66546;SDS011;53400;50.364;14.874;2023-11-19T05:46:03;19.17;;;10.57;;
66546;SDS011;53400;50.364;14.874;2023-11-19T05:48:29;18.65;;;8.52;;
66546;SDS011;53400;50.364;14.874;2023-11-19T05:50:59;21.05;;;9.95;;
66546;SDS011;53400;50.364;14.874;2023-11-19T05:53:29;19.95;;;9.25;;
66546;SDS011;53400;50.364;14.874;2023-11-19T05:55:55;19.30;;;9.65;;
66546;SDS011;53400;50.364;14.874;2023-11-19T05:58:24;16.50;;;8.52;;
66546;SDS011;53400;50.364;14.874;2023-11-19T06:00:54;18.95;;;9.25;;
66546;SDS011;53400;50.364;14.874;2023-11-19T06:03:20;17.70;;;9.13;;
66546;SDS011;53400;50.364;14.874;2023-11-19T06:05:49;20.30;;;9.50;;
66546;SDS011;53400;50.364;14.874;2023-11-19T06:08:25;18.65;;;8.68;;
66546;SDS011;53400;50.364;14.874;2023-11-19T06:10:54;18.92;;;9.02;;
66546;SDS011;53400;50.364;14.874;2023-11-19T06:13:23;19.92;;;9.55;;
66546;SDS011;53400;50.364;14.874;2023-11-19T06:15:52;18.50;;;9.35;;
66546;SDS011;53400;50.364;14.874;2023-11-19T06:18:18;19.25;;;10.15;;
66546;SDS011;53400;50.364;14.874;2023-11-19T06:20:46;17.17;;;8.75;;
66546;SDS011;53400;50.364;14.874;2023-11-19T06:23:12;17.80;;;9.05;;
66546;SDS011;53400;50.364;14.874;2023-11-19T06:25:38;19.70;;;10.18;;
66546;SDS011;53400;50.364;14.874;2023-11-19T06:28:06;18.65;;;9.32;;
66546;SDS011;53400;50.364;14.874;2023-11-19T06:30:33;20.20;;;9.95;;
66546;SDS011;53400;50.364;14.874;2023-11-19T06:33:03;17.42;;;9.10;;
66546;SDS011;53400;50.364;14.874;2023-11-19T06:35:32;18.67;;;8.38;;
66546;SDS011;53400;50.364;14.874;2023-11-19T06:38:04;19.27;;;8.75;;
66546;SDS011;53400;50.364;14.874;2023-11-19T06:40:30;16.17;;;8.10;;
66546;SDS011;53400;50.364;14.874;2023-11-19T06:42:56;16.52;;;8.18;;
66546;SDS011;53400;50.364;14.874;2023-11-19T06:45:24;14.10;;;8.23;;
66546;SDS011;53400;50.364;14.874;2023-11-19T06:47:50;20.27;;;9.82;;
66546;SDS011;53400;50.364;14.874;2023-11-19T06:50:18;18.98;;;9.82;;
66546;SDS011;53400;50.364;14.874;2023-11-19T06:52:45;16.90;;;8.63;;
66546;SDS011;53400;50.364;14.874;2023-11-19T06:55:11;16.67;;;8.85;;
66546;SDS011;53400;50.364;14.874;2023-11-19T06:57:37;19.67;;;9.85;;
66546;SDS011;53400;50.364;14.874;2023-11-19T07:00:04;16.85;;;8.23;;
66546;SDS011;53400;50.364;14.874;2023-11-19T07:02:33;14.75;;;7.22;;
66546;SDS011;53400;50.364;14.874;2023-11-19T07:04:59;14.00;;;7.53;;
66546;SDS011;53400;50.364;14.874;2023-11-19T07:07:25;17.23;;;7.90;;
66546;SDS011;53400;50.364;14.874;2023-11-19T07:09:54;18.83;;;9.52;;
66546;SDS011;53400;50.364;14.874;2023-11-19T07:12:21;20.98;;;10.07;;
66546;SDS011;53400;50.364;14.874;2023-11-19T07:14:47;20.10;;;8.48;;
66546;SDS011;53400;50.364;14.874;2023-11-19T07:17:13;19.75;;;9.77;;
66546;SDS011;53400;50.364;14.874;2023-11-19T07:19:42;19.23;;;9.90;;
66546;SDS011;53400;50.364;14.874;2023-11-19T07:22:16;19.13;;;9.88;;
66546;SDS011;53400;50.364;14.874;2023-11-19T07:24:44;18.73;;;9.15;;
66546;SDS011;53400;50.364;14.874;2023-11-19T07:27:10;16.70;;;8.60;;
66546;SDS011;53400;50.364;14.874;2023-11-19T07:29:37;21.10;;;10.40;;
66546;SDS011;53400;50.364;14.874;2023-11-19T07:32:06;20.85;;;10.25;;
66546;SDS011;53400;50.364;14.874;2023-11-19T07:34:34;19.40;;;9.55;;
66546;SDS011;53400;50.364;14.874;2023-11-19T07:37:01;18.95;;;8.93;;
66546;SDS011;53400;50.364;14.874;2023-11-19T07:39:28;16.90;;;8.60;;
66546;SDS011;53400;50.364;14.874;2023-11-19T07:41:55;18.67;;;9.35;;
66546;SDS011;53400;50.364;14.874;2023-11-19T07:44:21;19.92;;;9.68;;
66546;SDS011;53400;50.364;14.874;2023-11-19T07:46:48;18.15;;;10.25;;
66546;SDS011;53400;50.364;14.874;2023-11-19T07:49:14;18.63;;;9.20;;
66546;SDS011;53400;50.364;14.874;2023-11-19T07:51:40;18.52;;;10.13;;
66546;SDS011;53400;50.364;14.874;2023-11-19T07:54:14;19.70;;;11.18;;
66546;SDS011;53400;50.364;14.874;2023-11-19T07:56:40;16.98;;;9.55;;
66546;SDS011;53400;50.364;14.874;2023-11-19T07:59:06;17.80;;;10.20;;
66546;SDS011;53400;50.364;14.874;2023-11-19T08:01:33;16.45;;;9.20;;
66546;SDS011;53400;50.364;14.874;2023-11-19T08:03:59;16.63;;;8.65;;
66546;SDS011;53400;50.364;14.874;2023-11-19T08:06:27;18.45;;;9.75;;
66546;SDS011;53400;50.364;14.874;2023-11-19T08:08:53;18.35;;;9.63;;
66546;SDS011;53400;50.364;14.874;2023-11-19T08:11:21;17.92;;;9.05;;
66546;SDS011;53400;50.364;14.874;2023-11-19T08:13:48;16.70;;;8.93;;
66546;SDS011;53400;50.364;14.874;2023-11-19T08:16:20;16.60;;;8.98;;
66546;SDS011;53400;50.364;14.874;2023-11-19T08:18:50;18.27;;;9.50;;
66546;SDS011;53400;50.364;14.874;2023-11-19T08:21:16;17.83;;;9.63;;
66546;SDS011;53400;50.364;14.874;2023-11-19T08:23:44;16.80;;;9.30;;
66546;SDS011;53400;50.364;14.874;2023-11-19T08:26:14;16.77;;;8.70;;
66546;SDS011;53400;50.364;14.874;2023-11-19T08:28:42;15.35;;;8.23;;
66546;SDS011;53400;50.364;14.874;2023-11-19T08:31:08;16.90;;;9.23;;
66546;SDS011;53400;50.364;14.874;2023-11-19T08:33:34;18.30;;;9.45;;
66546;SDS011;53400;50.364;14.874;2023-11-19T08:36:01;19.52;;;9.50;;
66546;SDS011;53400;50.364;14.874;2023-11-19T08:38:29;19.75;;;9.38;;
66546;SDS011;53400;50.364;14.874;2023-11-19T08:40:56;18.20;;;9.15;;
66546;SDS011;53400;50.364;14.874;2023-11-19T08:43:25;19.45;;;11.05;;
66546;SDS011;53400;50.364;14.874;2023-11-19T08:45:52;18.92;;;9.95;;
66546;SDS011;53400;50.364;14.874;2023-11-19T08:48:24;19.00;;;10.38;;
66546;SDS011;53400;50.364;14.874;2023-11-19T08:50:52;17.00;;;9.50;;
66546;SDS011;53400;50.364;14.874;2023-11-19T08:53:18;18.55;;;9.82;;
66546;SDS011;53400;50.364;14.874;2023-11-19T08:55:45;16.67;;;8.77;;
66546;SDS011;53400;50.364;14.874;2023-11-19T08:58:27;18.58;;;10.25;;
66546;SDS011;53400;50.364;14.874;2023-11-19T09:00:55;20.10;;;9.98;;
66546;SDS011;53400;50.364;14.874;2023-11-19T09:03:22;20.17;;;11.88;;
66546;SDS011;53400;50.364;14.874;2023-11-19T09:05:49;20.05;;;10.48;;
66546;SDS011;53400;50.364;14.874;2023-11-19T09:08:22;19.30;;;10.15;;
66546;SDS011;53400;50.364;14.874;2023-11-19T09:10:50;19.85;;;9.68;;
66546;SDS011;53400;50.364;14.874;2023-11-19T09:13:17;19.00;;;8.95;;
66546;SDS011;53400;50.364;14.874;2023-11-19T09:15:58;18.63;;;8.52;;
66546;SDS011;53400;50.364;14.874;2023-11-19T09:18:35;18.95;;;9.82;;
66546;SDS011;53400;50.364;14.874;2023-11-19T09:21:01;18.50;;;8.85;;
66546;SDS011;53400;50.364;14.874;2023-11-19T09:23:28;16.40;;;8.80;;
66546;SDS011;53400;50.364;14.874;2023-11-19T09:26:22;15.88;;;8.13;;
66546;SDS011;53400;50.364;14.874;2023-11-19T09:28:49;16.88;;;9.40;;
66546;SDS011;53400;50.364;14.874;2023-11-19T09:31:16;16.27;;;9.25;;
66546;SDS011;53400;50.364;14.874;2023-11-19T09:33:46;15.35;;;8.50;;
66546;SDS011;53400;50.364;14.874;2023-11-19T09:36:26;14.57;;;8.50;;
66546;SDS011;53400;50.364;14.874;2023-11-19T09:38:54;15.65;;;8.80;;
66546;SDS011;53400;50.364;14.874;2023-11-19T09:41:22;19.40;;;9.07;;
66546;SDS011;53400;50.364;14.874;2023-11-19T09:43:49;19.92;;;9.88;;
66546;SDS011;53400;50.364;14.874;2023-11-19T09:46:18;15.73;;;8.40;;
66546;SDS011;53400;50.364;14.874;2023-11-19T09:48:50;16.48;;;8.48;;
66546;SDS011;53400;50.364;14.874;2023-11-19T09:51:26;15.57;;;8.63;;
66546;SDS011;53400;50.364;14.874;2023-11-19T09:53:56;17.00;;;8.98;;
66546;SDS011;53400;50.364;14.874;2023-11-19T09:56:23;18.45;;;9.40;;
66546;SDS011;53400;50.364;14.874;2023-11-19T09:58:49;17.75;;;9.20;;
66546;SDS011;53400;50.364;14.874;2023-11-19T10:01:20;20.35;;;10.18;;
66546;SDS011;53400;50.364;14.874;2023-11-19T10:03:51;21.20;;;10.77;;
66546;SDS011;53400;50.364;14.874;2023-11-19T10:06:22;39.97;;;22.02;;
66546;SDS011;53400;50.364;14.874;2023-11-19T10:08:51;19.77;;;9.82;;
66546;SDS011;53400;50.364;14.874;2023-11-19T10:11:17;19.77;;;10.15;;
66546;SDS011;53400;50.364;14.874;2023-11-19T10:13:46;16.02;;;10.02;;
66546;SDS011;53400;50.364;14.874;2023-11-19T10:16:20;19.20;;;10.60;;
66546;SDS011;53400;50.364;14.874;2023-11-19T10:18:47;18.77;;;10.48;;
66546;SDS011;53400;50.364;14.874;2023-11-19T10:21:14;20.98;;;11.77;;
66546;SDS011;53400;50.364;14.874;2023-11-19T10:23:50;19.88;;;9.93;;
66546;SDS011;53400;50.364;14.874;2023-11-19T10:26:20;25.05;;;16.15;;
66546;SDS011;53400;50.364;14.874;2023-11-19T10:28:47;21.08;;;12.18;;
66546;SDS011;53400;50.364;14.874;2023-11-19T10:31:14;18.38;;;11.00;;
66546;SDS011;53400;50.364;14.874;2023-11-19T10:33:47;19.05;;;11.98;;
66546;SDS011;53400;50.364;14.874;2023-11-19T10:36:17;20.27;;;12.07;;
66546;SDS011;53400;50.364;14.874;2023-11-19T10:38:51;18.17;;;10.63;;
66546;SDS011;53400;50.364;14.874;2023-11-19T10:41:28;22.70;;;12.38;;
66546;SDS011;53400;50.364;14.874;2023-11-19T10:43:59;20.95;;;11.32;;
66546;SDS011;53400;50.364;14.874;2023-11-19T10:46:37;15.00;;;8.50;;
66546;SDS011;53400;50.364;14.874;2023-11-19T10:49:07;15.48;;;8.73;;
66546;SDS011;53400;50.364;14.874;2023-11-19T10:51:33;15.65;;;9.20;;
66546;SDS011;53400;50.364;14.874;2023-11-19T10:54:01;17.27;;;11.52;;
66546;SDS011;53400;50.364;14.874;2023-11-19T10:56:31;17.40;;;9.63;;
66546;SDS011;53400;50.364;14.874;2023-11-19T10:58:59;18.95;;;11.50;;
66546;SDS011;53400;50.364;14.874;2023-11-19T11:01:26;17.92;;;10.27;;
66546;SDS011;53400;50.364;14.874;2023-11-19T11:04:12;17.02;;;9.48;;
66546;SDS011;53400;50.364;14.874;2023-11-19T11:06:40;14.05;;;7.93;;
66546;SDS011;53400;50.364;14.874;2023-11-19T11:09:09;14.93;;;8.27;;
66546;SDS011;53400;50.364;14.874;2023-11-19T11:11:44;13.18;;;7.70;;
66546;SDS011;53400;50.364;14.874;2023-11-19T11:14:13;15.30;;;8.60;;
66546;SDS011;53400;50.364;14.874;2023-11-19T11:16:42;17.60;;;10.05;;
66546;SDS011;53400;50.364;14.874;2023-11-19T11:19:09;15.65;;;8.38;;
66546;SDS011;53400;50.364;14.874;2023-11-19T11:21:37;21.25;;;10.70;;
66546;SDS011;53400;50.364;14.874;2023-11-19T11:24:23;19.70;;;9.68;;
66546;SDS011;53400;50.364;14.874;2023-11-19T11:30:04;16.95;;;11.20;;
66546;SDS011;53400;50.364;14.874;2023-11-19T11:32:39;20.30;;;10.38;;
66546;SDS011;53400;50.364;14.874;2023-11-19T11:35:25;18.77;;;9.75;;
66546;SDS011;53400;50.364;14.874;2023-11-19T11:43:50;15.20;;;8.57;;
66546;SDS011;53400;50.364;14.874;2023-11-19T11:46:55;16.70;;;7.70;;
66546;SDS011;53400;50.364;14.874;2023-11-19T11:49:58;15.60;;;9.23;;
66546;SDS011;53400;50.364;14.874;2023-11-19T11:55:55;17.88;;;10.07;;
66546;SDS011;53400;50.364;14.874;2023-11-19T11:58:34;18.10;;;8.65;;
66546;SDS011;53400;50.364;14.874;2023-11-19T12:01:03;16.52;;;10.10;;
66546;SDS011;53400;50.364;14.874;2023-11-19T12:06:37;21.02;;;10.55;;
66546;SDS011;53400;50.364;14.874;2023-11-19T12:09:13;22.27;;;12.55;;
66546;SDS011;53400;50.364;14.874;2023-11-19T12:11:55;26.30;;;13.90;;
66546;SDS011;53400;50.364;14.874;2023-11-19T12:15:05;25.98;;;12.80;;
66546;SDS011;53400;50.364;14.874;2023-11-19T12:17:53;32.88;;;15.80;;
66546;SDS011;53400;50.364;14.874;2023-11-19T12:20:36;29.20;;;15.13;;
66546;SDS011;53400;50.364;14.874;2023-11-19T12:23:08;45.58;;;19.88;;
66546;SDS011;53400;50.364;14.874;2023-11-19T12:25:37;33.40;;;17.45;;
66546;SDS011;53400;50.364;14.874;2023-11-19T12:28:21;22.77;;;13.05;;
66546;SDS011;53400;50.364;14.874;2023-11-19T12:31:06;25.30;;;14.45;;
66546;SDS011;53400;50.364;14.874;2023-11-19T12:33:37;24.63;;;14.23;;
66546;SDS011;53400;50.364;14.874;2023-11-19T12:36:22;26.42;;;15.88;;
66546;SDS011;53400;50.364;14.874;2023-11-19T12:38:51;28.17;;;14.40;;
66546;SDS011;53400;50.364;14.874;2023-11-19T12:41:18;25.65;;;14.50;;
66546;SDS011;53400;50.364;14.874;2023-11-19T12:43:56;24.00;;;13.82;;
66546;SDS011;53400;50.364;14.874;2023-11-19T12:46:35;28.42;;;14.93;;
66546;SDS011;53400;50.364;14.874;2023-11-19T12:49:02;25.58;;;14.57;;
66546;SDS011;53400;50.364;14.874;2023-11-19T12:51:30;24.13;;;14.07;;
66546;SDS011;53400;50.364;14.874;2023-11-19T12:54:05;25.17;;;13.60;;
66546;SDS011;53400;50.364;14.874;2023-11-19T12:56:31;22.85;;;12.35;;
66546;SDS011;53400;50.364;14.874;2023-11-19T12:59:01;22.92;;;12.93;;
66546;SDS011;53400;50.364;14.874;2023-11-19T13:01:39;26.60;;;14.23;;
66546;SDS011;53400;50.364;14.874;2023-11-19T13:04:30;28.48;;;15.10;;
66546;SDS011;53400;50.364;14.874;2023-11-19T13:06:57;38.05;;;19.55;;
66546;SDS011;53400;50.364;14.874;2023-11-19T13:09:23;28.38;;;15.18;;
66546;SDS011;53400;50.364;14.874;2023-11-19T13:11:51;27.90;;;14.90;;
66546;SDS011;53400;50.364;14.874;2023-11-19T13:14:36;30.77;;;18.85;;
66546;SDS011;53400;50.364;14.874;2023-11-19T13:17:07;27.92;;;16.80;;
66546;SDS011;53400;50.364;14.874;2023-11-19T13:19:33;23.52;;;13.60;;
66546;SDS011;53400;50.364;14.874;2023-11-19T13:22:00;22.90;;;14.63;;
66546;SDS011;53400;50.364;14.874;2023-11-19T13:24:27;24.63;;;14.20;;
66546;SDS011;53400;50.364;14.874;2023-11-19T13:26:57;22.92;;;12.30;;
66546;SDS011;53400;50.364;14.874;2023-11-19T13:29:24;22.70;;;12.85;;
66546;SDS011;53400;50.364;14.874;2023-11-19T13:31:55;20.95;;;11.40;;
66546;SDS011;53400;50.364;14.874;2023-11-19T13:35:19;29.05;;;15.43;;
66546;SDS011;53400;50.364;14.874;2023-11-19T13:37:54;38.83;;;24.95;;
66546;SDS011;53400;50.364;14.874;2023-11-19T13:40:20;23.90;;;13.45;;
66546;SDS011;53400;50.364;14.874;2023-11-19T13:42:50;26.00;;;14.77;;
66546;SDS011;53400;50.364;14.874;2023-11-19T13:45:19;26.95;;;16.50;;
66546;SDS011;53400;50.364;14.874;2023-11-19T13:47:53;32.88;;;20.35;;
66546;SDS011;53400;50.364;14.874;2023-11-19T13:50:20;23.02;;;12.80;;
66546;SDS011;53400;50.364;14.874;2023-11-19T13:52:49;24.55;;;11.90;;
66546;SDS011;53400;50.364;14.874;2023-11-19T13:55:15;22.58;;;13.13;;
66546;SDS011;53400;50.364;14.874;2023-11-19T13:57:45;19.42;;;11.80;;
66546;SDS011;53400;50.364;14.874;2023-11-19T14:00:14;19.97;;;10.03;;
66546;SDS011;53400;50.364;14.874;2023-11-19T14:02:51;22.75;;;12.07;;
66546;SDS011;53400;50.364;14.874;2023-11-19T14:05:17;20.52;;;10.93;;
66546;SDS011;53400;50.364;14.874;2023-11-19T14:07:47;22.30;;;11.65;;
66546;SDS011;53400;50.364;14.874;2023-11-19T14:10:17;21.50;;;11.82;;
66546;SDS011;53400;50.364;14.874;2023-11-19T14:12:50;21.98;;;10.55;;
66546;SDS011;53400;50.364;14.874;2023-11-19T14:15:24;23.40;;;10.95;;
66546;SDS011;53400;50.364;14.874;2023-11-19T14:17:58;31.50;;;15.98;;
66546;SDS011;53400;50.364;14.874;2023-11-19T14:20:33;26.85;;;14.68;;
66546;SDS011;53400;50.364;14.874;2023-11-19T14:23:01;29.55;;;15.88;;
66546;SDS011;53400;50.364;14.874;2023-11-19T14:25:28;33.10;;;15.23;;
66546;SDS011;53400;50.364;14.874;2023-11-19T14:27:55;29.85;;;14.60;;
66546;SDS011;53400;50.364;14.874;2023-11-19T14:30:35;43.25;;;22.33;;
66546;SDS011;53400;50.364;14.874;2023-11-19T14:33:20;33.72;;;17.75;;
66546;SDS011;53400;50.364;14.874;2023-11-19T14:35:53;35.45;;;18.70;;
66546;SDS011;53400;50.364;14.874;2023-11-19T14:38:25;35.30;;;18.02;;
66546;SDS011;53400;50.364;14.874;2023-11-19T14:41:06;32.45;;;17.02;;
66546;SDS011;53400;50.364;14.874;2023-11-19T14:43:36;42.83;;;25.98;;